Time;durP1;ratioP1;P1;durP2;ratioP2;P2;SDS_P1;SDS_P2;PMS_P1;PMS_P2;Temp;Humidity;BMP_temperature;BMP_pressure;BME280_temperature;BME280_humidity;BME280_pressure;Samples;Min_cycle;Max_cycle;Signal;HPM_P1;HPM_P2
2022/01/24 00:01:27;;;;;;;11.47;9.80;;;;;;;;;;5074880;28;20206;-72
2022/01/24 00:03:58;;;;;;;11.00;9.80;;;;;;;;;;5074807;28;20226;-75
2022/01/24 00:06:27;;;;;;;11.13;9.80;;;;;;;;;;5074670;28;20297;-74
2022/01/24 00:08:55;;;;;;;11.03;9.27;;;;;;;;;;5074424;28;20275;-74
2022/01/24 00:11:29;;;;;;;10.77;9.67;;;;;;;;;;5074394;28;20202;-74
2022/01/24 00:14:40;;;;;;;10.50;9.40;;;;;;;;;;5074471;28;20195;-74
2022/01/24 00:17:09;;;;;;;11.43;10.23;;;;;;;;;;5073499;28;20609;-75
2022/01/24 00:27:59;;;;;;;11.00;9.73;;;;;;;;;;5074272;28;20214;-74
2022/01/24 00:30:29;;;;;;;11.90;9.40;;;;;;;;;;5073804;28;20657;-75
2022/01/24 00:32:57;;;;;;;11.53;9.13;;;;;;;;;;5073538;28;20237;-72
2022/01/24 00:35:26;;;;;;;11.70;9.67;;;;;;;;;;5072951;28;20212;-73
2022/01/24 00:37:58;;;;;;;10.63;9.53;;;;;;;;;;5071284;28;20278;-72
2022/01/24 00:40:28;;;;;;;11.73;10.17;;;;;;;;;;5065153;28;20198;-75
2022/01/24 00:42:57;;;;;;;10.77;9.57;;;;;;;;;;5073242;28;20681;-74
2022/01/24 00:45:33;;;;;;;12.03;10.20;;;;;;;;;;5073530;28;20674;-72
2022/01/24 00:48:26;;;;;;;11.67;10.37;;;;;;;;;;5073584;28;20218;-75
2022/01/24 00:54:00;;;;;;;10.97;9.20;;;;;;;;;;5073287;28;20186;-73
2022/01/24 00:56:28;;;;;;;12.53;10.70;;;;;;;;;;5073825;28;20199;-74
2022/01/24 00:58:56;;;;;;;11.63;10.33;;;;;;;;;;5073482;28;20226;-75
2022/01/24 01:01:25;;;;;;;11.67;10.47;;;;;;;;;;5073394;28;20206;-75
2022/01/24 01:03:55;;;;;;;12.33;11.07;;;;;;;;;;5062650;28;20226;-74
2022/01/24 01:06:23;;;;;;;11.43;10.20;;;;;;;;;;5073348;28;20206;-74
2022/01/24 01:20:00;;;;;;;12.43;11.07;;;;;;;;;;5072816;28;20715;-72
2022/01/24 01:22:28;;;;;;;11.33;10.23;;;;;;;;;;5073092;28;20194;-73
2022/01/24 01:24:57;;;;;;;13.73;10.90;;;;;;;;;;5073013;28;20252;-72
2022/01/24 01:27:32;;;;;;;11.90;10.70;;;;;;;;;;5072959;28;20226;-72
2022/01/24 01:30:05;;;;;;;11.90;10.67;;;;;;;;;;5073030;28;20244;-73
2022/01/24 01:32:55;;;;;;;13.63;10.77;;;;;;;;;;5073165;28;20207;-73
2022/01/24 01:35:40;;;;;;;13.50;10.67;;;;;;;;;;5066876;28;20198;-74
2022/01/24 01:55:15;;;;;;;12.30;10.60;;;;;;;;;;5072979;28;20252;-75
2022/01/24 01:57:43;;;;;;;13.40;10.97;;;;;;;;;;5072596;28;20226;-75
2022/01/24 02:00:13;;;;;;;13.30;11.57;;;;;;;;;;5072746;28;20202;-74
2022/01/24 02:02:42;;;;;;;12.87;11.53;;;;;;;;;;5072671;28;20201;-74
2022/01/24 02:05:11;;;;;;;12.87;11.53;;;;;;;;;;5070448;28;20260;-76
2022/01/24 02:07:48;;;;;;;12.10;10.90;;;;;;;;;;5071579;28;20633;-76
2022/01/24 02:10:16;;;;;;;12.13;10.83;;;;;;;;;;5068447;28;20649;-73
2022/01/24 02:12:45;;;;;;;12.10;10.80;;;;;;;;;;5071278;28;20598;-75
2022/01/24 02:15:18;;;;;;;12.50;10.23;;;;;;;;;;5072109;28;20260;-72
2022/01/24 02:17:58;;;;;;;12.83;11.13;;;;;;;;;;5072681;28;20233;-73
2022/01/24 02:20:41;;;;;;;12.20;11.00;;;;;;;;;;5072731;28;20665;-72
2022/01/24 02:23:36;;;;;;;14.43;10.63;;;;;;;;;;5056201;28;20248;-73
2022/01/24 02:26:09;;;;;;;14.50;12.07;;;;;;;;;;5072774;28;20195;-74
2022/01/24 02:28:48;;;;;;;14.03;11.37;;;;;;;;;;5072475;28;20603;-74
2022/01/24 02:31:36;;;;;;;13.60;12.00;;;;;;;;;;5072088;28;20646;-72
2022/01/24 02:34:06;;;;;;;13.87;12.30;;;;;;;;;;5072794;28;20263;-73
2022/01/24 02:36:34;;;;;;;13.23;11.83;;;;;;;;;;5072412;28;20241;-75
2022/01/24 02:39:25;;;;;;;16.60;12.03;;;;;;;;;;5072276;28;20291;-74
2022/01/24 02:50:20;;;;;;;12.70;11.20;;;;;;;;;;5062766;28;20211;-75
2022/01/24 02:52:48;;;;;;;13.33;12.00;;;;;;;;;;5075842;28;20542;-74
2022/01/24 02:55:18;;;;;;;14.87;12.03;;;;;;;;;;5075931;28;20198;-72
2022/01/24 02:57:47;;;;;;;14.07;12.47;;;;;;;;;;5075448;28;20225;-72
2022/01/24 03:00:16;;;;;;;12.47;11.13;;;;;;;;;;5075828;28;20211;-74
2022/01/24 03:02:44;;;;;;;13.77;11.67;;;;;;;;;;5058604;28;20252;-72
2022/01/24 03:05:13;;;;;;;12.20;10.83;;;;;;;;;;5075686;28;20629;-73
2022/01/24 03:07:41;;;;;;;12.17;10.87;;;;;;;;;;5069391;28;20256;-75
2022/01/24 03:10:14;;;;;;;13.47;11.10;;;;;;;;;;5075483;28;20210;-73
2022/01/24 03:12:47;;;;;;;12.90;11.07;;;;;;;;;;5075901;28;20195;-74
2022/01/24 03:15:16;;;;;;;13.03;11.00;;;;;;;;;;5055650;28;20233;-73
2022/01/24 03:17:44;;;;;;;13.17;11.23;;;;;;;;;;5055980;28;20223;-76
2022/01/24 03:20:13;;;;;;;11.73;10.53;;;;;;;;;;5055678;28;20249;-75
2022/01/24 03:22:41;;;;;;;12.20;10.57;;;;;;;;;;5074694;28;20613;-72
2022/01/24 03:25:09;;;;;;;13.60;11.33;;;;;;;;;;5075186;28;20264;-75
2022/01/24 03:27:38;;;;;;;13.23;10.97;;;;;;;;;;5075187;28;20222;-75
2022/01/24 03:30:09;;;;;;;14.70;11.80;;;;;;;;;;5074804;28;20608;-72
2022/01/24 03:32:37;;;;;;;14.27;11.67;;;;;;;;;;5075159;28;20232;-71
2022/01/24 03:35:07;;;;;;;13.23;11.87;;;;;;;;;;5074846;28;20209;-73
2022/01/24 03:37:36;;;;;;;13.43;11.20;;;;;;;;;;5075194;28;20301;-75
2022/01/24 03:40:04;;;;;;;13.97;11.40;;;;;;;;;;5074970;28;20238;-73
2022/01/24 03:42:33;;;;;;;12.53;11.20;;;;;;;;;;5074731;28;20723;-75
2022/01/24 03:45:04;;;;;;;14.20;11.90;;;;;;;;;;5075031;28;20234;-72
2022/01/24 03:47:54;;;;;;;12.53;11.23;;;;;;;;;;5074977;28;20226;-74
2022/01/24 03:50:23;;;;;;;13.07;11.53;;;;;;;;;;5074322;28;20206;-72
2022/01/24 03:52:51;;;;;;;13.10;11.70;;;;;;;;;;5073425;28;20607;-75
2022/01/24 03:55:20;;;;;;;14.03;11.40;;;;;;;;;;5074880;28;20210;-73
2022/01/24 03:57:48;;;;;;;13.30;11.90;;;;;;;;;;5074737;28;20226;-74
2022/01/24 04:00:17;;;;;;;15.60;12.40;;;;;;;;;;5074218;28;20194;-74
2022/01/24 04:02:47;;;;;;;13.67;11.30;;;;;;;;;;5074203;28;20202;-72
2022/01/24 04:05:15;;;;;;;13.83;12.23;;;;;;;;;;5074727;28;20222;-74
2022/01/24 04:07:44;;;;;;;14.30;12.43;;;;;;;;;;5059508;28;20291;-74
2022/01/24 04:10:17;;;;;;;13.63;12.23;;;;;;;;;;5074178;28;20260;-76
2022/01/24 04:12:45;;;;;;;13.70;11.87;;;;;;;;;;5074378;28;20808;-72
2022/01/24 04:15:44;;;;;;;13.97;11.80;;;;;;;;;;5074082;28;20194;-73
2022/01/24 04:18:33;;;;;;;14.27;11.60;;;;;;;;;;5074313;28;20222;-75
2022/01/24 04:21:26;;;;;;;13.63;11.40;;;;;;;;;;5074086;28;20220;-75
2022/01/24 04:24:00;;;;;;;13.23;11.60;;;;;;;;;;5074410;28;20202;-73
2022/01/24 04:26:29;;;;;;;11.93;10.73;;;;;;;;;;5073932;28;20662;-73
2022/01/24 04:28:59;;;;;;;11.83;10.47;;;;;;;;;;5073637;28;20271;-73
2022/01/24 04:31:27;;;;;;;12.50;11.20;;;;;;;;;;5073781;28;20202;-73
2022/01/24 04:33:57;;;;;;;13.10;11.70;;;;;;;;;;5074074;28;20202;-75
2022/01/24 04:36:26;;;;;;;13.17;11.20;;;;;;;;;;5065102;28;20203;-74
2022/01/24 04:38:55;;;;;;;13.30;11.90;;;;;;;;;;5072648;28;20268;-72
2022/01/24 04:41:24;;;;;;;14.70;12.03;;;;;;;;;;5073659;28;20561;-75
2022/01/24 04:44:00;;;;;;;13.00;11.27;;;;;;;;;;5074187;28;20259;-76
2022/01/24 04:52:17;;;;;;;12.87;11.47;;;;;;;;;;5070897;28;20654;-74
2022/01/24 04:54:46;;;;;;;13.23;11.73;;;;;;;;;;5074036;28;20535;-72
2022/01/24 04:57:15;;;;;;;11.93;10.70;;;;;;;;;;5072724;28;20276;-74
2022/01/24 04:59:47;;;;;;;13.07;11.37;;;;;;;;;;5073241;28;20199;-75
2022/01/24 05:02:16;;;;;;;13.23;11.50;;;;;;;;;;5073162;28;20202;-74
2022/01/24 05:04:45;;;;;;;12.40;11.10;;;;;;;;;;5073289;28;20304;-75
2022/01/24 05:07:14;;;;;;;12.97;11.07;;;;;;;;;;5073299;28;20214;-75
2022/01/24 05:09:47;;;;;;;13.77;11.47;;;;;;;;;;5073552;28;20206;-75
2022/01/24 05:12:23;;;;;;;13.33;11.63;;;;;;;;;;5073043;28;20580;-75
2022/01/24 05:23:32;;;;;;;12.33;11.03;;;;;;;;;;5053604;28;20199;-76
2022/01/24 05:26:01;;;;;;;12.20;11.00;;;;;;;;;;5071692;28;20277;-72
2022/01/24 05:28:31;;;;;;;13.10;11.13;;;;;;;;;;5072464;28;20217;-73
2022/01/24 05:30:59;;;;;;;14.27;11.20;;;;;;;;;;5072828;28;20206;-73
2022/01/24 05:33:28;;;;;;;14.43;11.53;;;;;;;;;;5071774;28;20206;-75
2022/01/24 05:35:58;;;;;;;13.47;12.07;;;;;;;;;;5072787;28;20198;-73
2022/01/24 05:38:27;;;;;;;13.33;11.50;;;;;;;;;;5072829;28;20271;-72
2022/01/24 05:41:01;;;;;;;13.73;11.23;;;;;;;;;;5067881;28;20201;-75
2022/01/24 05:43:30;;;;;;;16.77;14.97;;;;;;;;;;5072818;28;20207;-72
2022/01/24 05:45:58;;;;;;;16.90;15.10;;;;;;;;;;5070595;28;20230;-72
2022/01/24 05:48:27;;;;;;;14.60;13.00;;;;;;;;;;5072676;28;20616;-72
2022/01/24 05:50:55;;;;;;;15.40;12.67;;;;;;;;;;5070109;28;20199;-75
2022/01/24 05:53:25;;;;;;;16.90;14.47;;;;;;;;;;5072945;28;20199;-74
2022/01/24 05:55:54;;;;;;;20.60;16.80;;;;;;;;;;5072095;28;20676;-72
2022/01/24 05:58:23;;;;;;;20.07;16.27;;;;;;;;;;5074654;28;20236;-73
2022/01/24 06:00:51;;;;;;;18.23;15.20;;;;;;;;;;5070963;28;20234;-73
2022/01/24 06:03:21;;;;;;;17.67;15.73;;;;;;;;;;5071833;28;20203;-74
2022/01/24 06:05:50;;;;;;;19.03;15.03;;;;;;;;;;5071146;28;20591;-74
2022/01/24 06:08:18;;;;;;;17.53;15.47;;;;;;;;;;5072570;28;20717;-72
2022/01/24 06:10:48;;;;;;;20.13;16.13;;;;;;;;;;5071970;28;20199;-73
2022/01/24 06:13:17;;;;;;;18.23;15.73;;;;;;;;;;5072930;28;20287;-72
2022/01/24 06:15:45;;;;;;;20.57;16.57;;;;;;;;;;5074841;28;20210;-75
2022/01/24 06:18:13;;;;;;;19.87;16.43;;;;;;;;;;5076398;28;20210;-72
2022/01/24 06:20:43;;;;;;;20.23;17.80;;;;;;;;;;5075590;28;20194;-74
2022/01/24 06:23:13;;;;;;;19.13;16.53;;;;;;;;;;5076033;28;20598;-72
2022/01/24 06:25:42;;;;;;;21.23;18.30;;;;;;;;;;5076575;28;20291;-74
2022/01/24 06:28:11;;;;;;;19.70;17.60;;;;;;;;;;5075728;28;20215;-72
2022/01/24 06:30:40;;;;;;;21.50;18.00;;;;;;;;;;5071807;28;20252;-72
2022/01/24 06:33:08;;;;;;;20.27;17.90;;;;;;;;;;5074736;28;20252;-73
2022/01/24 06:35:37;;;;;;;19.70;17.60;;;;;;;;;;5077903;28;20650;-71
2022/01/24 06:38:05;;;;;;;19.50;16.50;;;;;;;;;;5075929;28;20219;-74
2022/01/24 06:40:34;;;;;;;19.90;16.53;;;;;;;;;;5075201;28;20264;-71
2022/01/24 06:43:02;;;;;;;20.77;15.67;;;;;;;;;;5076086;28;20199;-74
2022/01/24 06:45:32;;;;;;;18.77;16.33;;;;;;;;;;5076339;28;20229;-73
2022/01/24 06:48:00;;;;;;;21.17;16.67;;;;;;;;;;5074919;28;20238;-73
2022/01/24 06:50:29;;;;;;;21.13;17.00;;;;;;;;;;5084689;28;20613;-73
2022/01/24 06:52:57;;;;;;;21.37;17.87;;;;;;;;;;5089913;28;20194;-74
2022/01/24 06:55:25;;;;;;;21.00;17.50;;;;;;;;;;5087227;28;20197;-72
2022/01/24 06:57:54;;;;;;;22.87;18.60;;;;;;;;;;5087326;28;20217;-71
2022/01/24 07:00:26;;;;;;;23.93;18.50;;;;;;;;;;5075742;28;20202;-70
2022/01/24 07:02:56;;;;;;;23.10;17.80;;;;;;;;;;5075891;28;20689;-74
2022/01/24 07:05:25;;;;;;;21.27;17.57;;;;;;;;;;5075936;28;20750;-74
2022/01/24 07:07:56;;;;;;;21.20;17.37;;;;;;;;;;5092107;28;20214;-74
2022/01/24 07:10:25;;;;;;;21.37;17.30;;;;;;;;;;5075714;28;20207;-72
2022/01/24 07:12:57;;;;;;;22.77;17.67;;;;;;;;;;5087744;28;20240;-74
2022/01/24 07:15:34;;;;;;;19.40;16.03;;;;;;;;;;5089829;28;20605;-72
2022/01/24 07:21:00;;;;;;;20.67;16.43;;;;;;;;;;5089256;28;20198;-74
2022/01/24 07:23:28;;;;;;;20.37;16.40;;;;;;;;;;5091038;28;20251;-71
2022/01/24 07:26:01;;;;;;;20.63;17.13;;;;;;;;;;5075036;28;20716;-73
2022/01/24 07:28:29;;;;;;;22.30;17.33;;;;;;;;;;5075270;28;20305;-73
2022/01/24 07:30:58;;;;;;;19.70;16.23;;;;;;;;;;5074323;28;20689;-73
2022/01/24 07:33:29;;;;;;;22.40;17.70;;;;;;;;;;5075335;28;20199;-74
2022/01/24 07:35:57;;;;;;;23.33;17.23;;;;;;;;;;5074838;28;20206;-71
2022/01/24 07:38:26;;;;;;;23.33;17.47;;;;;;;;;;5075386;28;20226;-75
2022/01/24 07:40:55;;;;;;;20.43;16.87;;;;;;;;;;5075534;28;20206;-72
2022/01/24 07:43:24;;;;;;;21.53;16.90;;;;;;;;;;5075159;28;20244;-71
2022/01/24 07:45:52;;;;;;;25.80;18.77;;;;;;;;;;5074547;28;20218;-72
2022/01/24 07:48:22;;;;;;;22.10;18.50;;;;;;;;;;5074769;28;20230;-73
2022/01/24 07:50:52;;;;;;;23.47;18.80;;;;;;;;;;5075151;28;20206;-73
2022/01/24 07:53:22;;;;;;;22.47;17.93;;;;;;;;;;5074987;28;20202;-73
2022/01/24 07:56:11;;;;;;;23.03;18.67;;;;;;;;;;5074897;28;20723;-72
2022/01/24 07:58:42;;;;;;;23.80;18.20;;;;;;;;;;5074460;28;20223;-74
2022/01/24 08:01:10;;;;;;;18.67;15.77;;;;;;;;;;5074997;28;20195;-72
2022/01/24 08:03:38;;;;;;;21.07;16.37;;;;;;;;;;5074473;28;20203;-74
2022/01/24 08:06:08;;;;;;;21.53;15.63;;;;;;;;;;5066726;28;20557;-72
2022/01/24 08:08:37;;;;;;;19.30;15.67;;;;;;;;;;5074501;28;20674;-73
2022/01/24 08:11:06;;;;;;;19.33;15.37;;;;;;;;;;5074589;28;20210;-74
2022/01/24 08:13:36;;;;;;;18.13;15.27;;;;;;;;;;5074706;28;20194;-75
2022/01/24 08:16:05;;;;;;;13.97;12.47;;;;;;;;;;5074752;28;20183;-74
2022/01/24 08:18:33;;;;;;;13.80;12.40;;;;;;;;;;5074548;28;20222;-72
2022/01/24 08:21:02;;;;;;;13.50;11.87;;;;;;;;;;5074461;28;20593;-72
2022/01/24 08:23:31;;;;;;;15.47;12.67;;;;;;;;;;5074367;28;20203;-72
2022/01/24 08:26:00;;;;;;;15.63;12.97;;;;;;;;;;5074088;28;20206;-72
2022/01/24 08:28:28;;;;;;;11.50;9.87;;;;;;;;;;5074226;28;20277;-75
2022/01/24 08:30:57;;;;;;;12.23;10.23;;;;;;;;;;5074282;28;20213;-71
2022/01/24 08:33:25;;;;;;;11.67;10.47;;;;;;;;;;5074385;28;20226;-75
2022/01/24 08:35:54;;;;;;;12.27;10.03;;;;;;;;;;5074223;28;20256;-74
2022/01/24 08:38:23;;;;;;;11.37;10.17;;;;;;;;;;5073114;28;20271;-72
2022/01/24 08:40:57;;;;;;;13.13;10.67;;;;;;;;;;5073953;28;20293;-74
2022/01/24 08:43:38;;;;;;;13.27;11.13;;;;;;;;;;5071614;28;20259;-73
2022/01/24 08:46:10;;;;;;;11.87;10.67;;;;;;;;;;5073540;28;20582;-71
2022/01/24 08:48:38;;;;;;;12.10;10.80;;;;;;;;;;5073599;28;20839;-72
2022/01/24 08:51:07;;;;;;;12.20;10.40;;;;;;;;;;5073977;28;20259;-72
2022/01/24 08:53:36;;;;;;;12.40;10.03;;;;;;;;;;5073563;28;20662;-72
2022/01/24 08:56:07;;;;;;;10.60;9.00;;;;;;;;;;5073896;28;20207;-73
2022/01/24 08:58:36;;;;;;;8.40;7.60;;;;;;;;;;5073358;28;20276;-75
2022/01/24 09:01:05;;;;;;;9.40;7.90;;;;;;;;;;5073644;28;20202;-74
2022/01/24 09:03:39;;;;;;;9.23;7.90;;;;;;;;;;5073297;28;20669;-74
2022/01/24 09:06:16;;;;;;;10.87;8.67;;;;;;;;;;5073664;28;20266;-72
2022/01/24 09:08:45;;;;;;;12.03;9.13;;;;;;;;;;5073170;28;20222;-74
2022/01/24 09:11:15;;;;;;;10.23;9.13;;;;;;;;;;5071935;28;20230;-71
2022/01/24 09:13:43;;;;;;;12.60;9.77;;;;;;;;;;5073432;28;20198;-72
2022/01/24 09:16:12;;;;;;;9.90;8.90;;;;;;;;;;5073458;28;20747;-72
2022/01/24 09:18:40;;;;;;;11.57;10.37;;;;;;;;;;5073621;28;20225;-73
2022/01/24 09:21:08;;;;;;;11.60;9.73;;;;;;;;;;5073145;28;20662;-72
2022/01/24 09:23:39;;;;;;;11.90;10.60;;;;;;;;;;5076197;28;20255;-72
2022/01/24 09:26:07;;;;;;;11.17;9.90;;;;;;;;;;5091778;27;20287;-74
2022/01/24 09:28:37;;;;;;;9.17;8.27;;;;;;;;;;5093004;28;20230;-75
2022/01/24 09:31:06;;;;;;;8.63;7.80;;;;;;;;;;5092596;28;20205;-74
2022/01/24 09:33:35;;;;;;;10.57;8.73;;;;;;;;;;5093667;28;20197;-71
2022/01/24 09:36:03;;;;;;;10.43;9.43;;;;;;;;;;5080781;28;20247;-72
2022/01/24 09:38:32;;;;;;;12.33;10.20;;;;;;;;;;5072925;28;20218;-73
2022/01/24 09:41:02;;;;;;;11.80;9.70;;;;;;;;;;5067712;28;20210;-74
2022/01/24 09:43:31;;;;;;;11.67;9.90;;;;;;;;;;5073377;28;20199;-74
2022/01/24 09:46:01;;;;;;;12.30;11.00;;;;;;;;;;5072742;28;20317;-74
2022/01/24 09:48:30;;;;;;;12.10;9.87;;;;;;;;;;5072676;28;20287;-75
2022/01/24 09:50:58;;;;;;;9.90;8.90;;;;;;;;;;5076870;28;20251;-72
2022/01/24 09:53:30;;;;;;;9.77;8.77;;;;;;;;;;5077034;28;20256;-74
2022/01/24 09:56:03;;;;;;;9.23;8.27;;;;;;;;;;5077260;28;20202;-71
2022/01/24 09:58:31;;;;;;;8.00;7.20;;;;;;;;;;5076544;28;20275;-73
2022/01/24 10:01:01;;;;;;;9.17;7.80;;;;;;;;;;5076394;28;20677;-73
2022/01/24 10:03:30;;;;;;;7.83;7.03;;;;;;;;;;5077003;28;20664;-75
2022/01/24 10:06:11;;;;;;;8.87;8.03;;;;;;;;;;5077034;28;20202;-74
2022/01/24 10:08:39;;;;;;;9.27;8.23;;;;;;;;;;5076643;28;20230;-72
2022/01/24 10:11:08;;;;;;;8.30;7.53;;;;;;;;;;5076488;28;20198;-75
2022/01/24 10:16:29;;;;;;;9.17;6.90;;;;;;;;;;5076621;28;20187;-74
2022/01/24 10:19:06;;;;;;;8.00;7.23;;;;;;;;;;5076531;28;20211;-72
2022/01/24 10:21:55;;;;;;;8.03;7.23;;;;;;;;;;5056327;28;20651;-72
2022/01/24 10:24:31;;;;;;;8.90;7.50;;;;;;;;;;5071577;28;20201;-73
2022/01/24 10:27:10;;;;;;;8.47;7.60;;;;;;;;;;5076201;28;20210;-72
2022/01/24 10:29:42;;;;;;;8.77;7.87;;;;;;;;;;5076256;28;20194;-73
2022/01/24 10:32:27;;;;;;;9.37;7.87;;;;;;;;;;5076307;28;20696;-73
2022/01/24 10:34:55;;;;;;;8.57;7.40;;;;;;;;;;5076249;28;20190;-76
2022/01/24 10:37:24;;;;;;;8.80;7.87;;;;;;;;;;5075814;28;20233;-71
2022/01/24 10:39:57;;;;;;;7.57;6.87;;;;;;;;;;5072868;28;20666;-74
2022/01/24 10:42:41;;;;;;;8.60;7.70;;;;;;;;;;5075476;28;20191;-72
2022/01/24 10:45:14;;;;;;;8.60;7.70;;;;;;;;;;5076038;28;20210;-72
2022/01/24 10:47:46;;;;;;;7.83;7.07;;;;;;;;;;5075909;28;20276;-73
2022/01/24 10:50:21;;;;;;;8.60;7.70;;;;;;;;;;5075547;28;20236;-73
2022/01/24 10:52:49;;;;;;;9.27;8.10;;;;;;;;;;5075986;28;20256;-72
2022/01/24 10:55:18;;;;;;;8.60;6.90;;;;;;;;;;5075968;28;20205;-72
2022/01/24 10:57:48;;;;;;;7.80;7.00;;;;;;;;;;5075581;28;20211;-71
2022/01/24 11:00:19;;;;;;;8.57;7.50;;;;;;;;;;5075336;28;20324;-74
2022/01/24 11:02:51;;;;;;;7.60;6.80;;;;;;;;;;5075482;28;20240;-72
2022/01/24 11:05:21;;;;;;;8.47;7.67;;;;;;;;;;5076098;28;20199;-74
2022/01/24 11:07:56;;;;;;;7.33;6.63;;;;;;;;;;5075541;28;20320;-75
2022/01/24 11:10:25;;;;;;;8.90;6.90;;;;;;;;;;5075634;28;20285;-74
2022/01/24 11:12:53;;;;;;;7.93;6.90;;;;;;;;;;5075367;28;20198;-73
2022/01/24 11:15:22;;;;;;;7.47;6.27;;;;;;;;;;5075428;28;20217;-73
2022/01/24 11:17:52;;;;;;;6.80;6.10;;;;;;;;;;5075217;28;20744;-74
2022/01/24 11:20:21;;;;;;;6.90;6.30;;;;;;;;;;5075279;28;20719;-72
2022/01/24 11:22:58;;;;;;;7.20;6.50;;;;;;;;;;5075318;28;20198;-75
2022/01/24 11:25:26;;;;;;;6.77;5.97;;;;;;;;;;5075666;28;20259;-73
2022/01/24 11:27:55;;;;;;;6.80;6.10;;;;;;;;;;5075073;28;20218;-72
2022/01/24 11:30:24;;;;;;;7.00;6.30;;;;;;;;;;5075298;28;20194;-73
2022/01/24 11:32:55;;;;;;;6.43;5.83;;;;;;;;;;5075179;28;20206;-73
2022/01/24 11:35:31;;;;;;;8.07;6.20;;;;;;;;;;5075228;28;20202;-73
2022/01/24 11:37:59;;;;;;;7.03;5.53;;;;;;;;;;5075318;28;20222;-71
2022/01/24 11:40:28;;;;;;;5.97;5.43;;;;;;;;;;5069585;28;20198;-73
2022/01/24 11:42:57;;;;;;;6.40;5.80;;;;;;;;;;5075296;28;20213;-72
2022/01/24 11:45:43;;;;;;;8.00;5.77;;;;;;;;;;5075088;28;20222;-73
2022/01/24 11:48:17;;;;;;;7.10;5.47;;;;;;;;;;5075085;28;20261;-71
2022/01/24 11:50:55;;;;;;;6.07;5.47;;;;;;;;;;5075191;28;20580;-73
2022/01/24 11:53:26;;;;;;;6.57;5.93;;;;;;;;;;5075354;28;20187;-75
2022/01/24 11:55:55;;;;;;;6.03;5.40;;;;;;;;;;5075106;28;20202;-74
2022/01/24 11:58:24;;;;;;;7.50;6.00;;;;;;;;;;5074400;28;20221;-71
2022/01/24 12:00:55;;;;;;;6.77;5.73;;;;;;;;;;5074624;28;20191;-72
2022/01/24 12:03:27;;;;;;;6.40;5.80;;;;;;;;;;5075107;28;20210;-72
2022/01/24 12:05:57;;;;;;;6.17;5.57;;;;;;;;;;5074945;28;20210;-71
2022/01/24 12:08:47;;;;;;;7.17;6.43;;;;;;;;;;5074367;28;20331;-73
2022/01/24 12:11:19;;;;;;;6.40;5.80;;;;;;;;;;5074786;28;20203;-72
2022/01/24 12:14:00;;;;;;;7.10;6.40;;;;;;;;;;5073760;28;20190;-71
2022/01/24 12:16:34;;;;;;;6.33;5.70;;;;;;;;;;5074729;28;20186;-73
2022/01/24 12:19:05;;;;;;;6.53;5.93;;;;;;;;;;5074314;28;20222;-73
2022/01/24 12:21:34;;;;;;;6.87;6.20;;;;;;;;;;5074345;28;20237;-75
2022/01/24 12:24:07;;;;;;;7.53;6.30;;;;;;;;;;5074583;28;20203;-72
2022/01/24 12:26:42;;;;;;;6.80;6.10;;;;;;;;;;5074400;28;20229;-72
2022/01/24 12:29:12;;;;;;;5.80;5.30;;;;;;;;;;5074453;28;20313;-73
2022/01/24 12:31:45;;;;;;;6.57;5.97;;;;;;;;;;5074093;28;20202;-72
2022/01/24 12:34:24;;;;;;;6.50;5.90;;;;;;;;;;5074224;28;20234;-74
2022/01/24 12:37:08;;;;;;;7.17;6.47;;;;;;;;;;5074407;28;20186;-72
2022/01/24 12:39:46;;;;;;;7.93;6.87;;;;;;;;;;5074053;28;20210;-72
2022/01/24 12:42:19;;;;;;;7.73;6.93;;;;;;;;;;5074324;28;20194;-72
2022/01/24 12:47:38;;;;;;;6.87;6.27;;;;;;;;;;5073979;28;20249;-73
2022/01/24 12:50:10;;;;;;;7.60;6.73;;;;;;;;;;5073717;28;20258;-74
2022/01/24 12:52:40;;;;;;;7.07;6.30;;;;;;;;;;5073822;28;20247;-73
2022/01/24 12:55:10;;;;;;;8.67;6.93;;;;;;;;;;5073853;28;20206;-73
2022/01/24 12:57:42;;;;;;;8.20;6.43;;;;;;;;;;5074079;28;20245;-74
2022/01/24 13:00:12;;;;;;;7.00;6.40;;;;;;;;;;5073509;28;20198;-72
2022/01/24 13:02:41;;;;;;;7.33;6.53;;;;;;;;;;5073283;28;20678;-73
2022/01/24 13:05:12;;;;;;;6.83;6.23;;;;;;;;;;5073864;28;20248;-73
2022/01/24 13:07:42;;;;;;;6.90;6.20;;;;;;;;;;5073369;28;20226;-72
2022/01/24 13:10:15;;;;;;;7.03;6.43;;;;;;;;;;5073180;28;20215;-74
2022/01/24 13:12:44;;;;;;;7.63;6.93;;;;;;;;;;5067334;28;20554;-74
2022/01/24 13:15:26;;;;;;;6.90;6.30;;;;;;;;;;5053752;28;20207;-74
2022/01/24 13:21:07;;;;;;;7.33;6.63;;;;;;;;;;5059356;28;20217;-74
2022/01/24 13:23:40;;;;;;;7.83;7.13;;;;;;;;;;5067565;28;20191;-74
2022/01/24 13:26:09;;;;;;;7.47;6.77;;;;;;;;;;5072420;28;20202;-73
2022/01/24 13:28:37;;;;;;;7.60;6.90;;;;;;;;;;5070917;28;20249;-75
2022/01/24 13:31:07;;;;;;;8.03;7.27;;;;;;;;;;5072027;28;20203;-75
2022/01/24 13:33:36;;;;;;;8.30;7.50;;;;;;;;;;5073444;28;20202;-73
2022/01/24 13:36:08;;;;;;;8.53;7.63;;;;;;;;;;5073019;28;20297;-74
2022/01/24 13:38:37;;;;;;;8.13;7.43;;;;;;;;;;5073288;28;20230;-75
2022/01/24 13:41:10;;;;;;;8.23;7.43;;;;;;;;;;5069118;28;20210;-71
2022/01/24 13:43:39;;;;;;;8.93;8.03;;;;;;;;;;5073249;28;20203;-73
2022/01/24 13:46:10;;;;;;;8.93;7.97;;;;;;;;;;5073014;28;20218;-75
2022/01/24 13:48:41;;;;;;;9.20;8.30;;;;;;;;;;5073051;28;20272;-71
2022/01/24 13:51:12;;;;;;;9.23;8.33;;;;;;;;;;5072074;28;20248;-75
2022/01/24 13:53:41;;;;;;;9.20;8.40;;;;;;;;;;5072991;28;20590;-74
2022/01/24 13:56:17;;;;;;;8.63;7.80;;;;;;;;;;5071986;28;20198;-75
2022/01/24 13:58:58;;;;;;;7.90;7.17;;;;;;;;;;5072946;28;20221;-70
2022/01/24 14:01:26;;;;;;;8.70;7.87;;;;;;;;;;5072827;28;20195;-74
2022/01/24 14:03:59;;;;;;;8.77;7.87;;;;;;;;;;5072888;28;20289;-73
2022/01/24 14:06:31;;;;;;;9.40;8.00;;;;;;;;;;5072605;28;20210;-71
2022/01/24 14:09:05;;;;;;;9.87;8.07;;;;;;;;;;5072657;28;20352;-72
2022/01/24 14:11:33;;;;;;;9.03;8.13;;;;;;;;;;5071278;28;20202;-72
2022/01/24 14:14:06;;;;;;;8.20;7.40;;;;;;;;;;5072767;28;20225;-72
2022/01/24 14:19:29;;;;;;;8.57;7.60;;;;;;;;;;5052651;28;20199;-72
2022/01/24 14:22:02;;;;;;;8.43;7.63;;;;;;;;;;5071024;28;20653;-75
2022/01/24 14:24:44;;;;;;;8.23;7.30;;;;;;;;;;5068731;27;20194;-71
2022/01/24 14:27:13;;;;;;;7.70;7.00;;;;;;;;;;5068600;28;20214;-72
2022/01/24 14:29:41;;;;;;;8.60;7.63;;;;;;;;;;5066806;28;20670;-73
2022/01/24 14:32:13;;;;;;;8.57;7.77;;;;;;;;;;5073813;28;20658;-71
2022/01/24 14:34:41;;;;;;;8.57;7.67;;;;;;;;;;5072228;28;20201;-74
2022/01/24 14:37:11;;;;;;;8.37;7.53;;;;;;;;;;5073633;28;20271;-72
2022/01/24 14:39:48;;;;;;;8.40;7.50;;;;;;;;;;5073896;28;20191;-75
2022/01/24 14:42:31;;;;;;;8.87;8.00;;;;;;;;;;5074074;28;20210;-73
2022/01/24 14:45:00;;;;;;;9.23;8.33;;;;;;;;;;5075105;28;20210;-71
2022/01/24 14:47:30;;;;;;;9.63;8.73;;;;;;;;;;5075251;28;20279;-71
2022/01/24 14:49:58;;;;;;;8.67;7.87;;;;;;;;;;5074012;28;20225;-73
2022/01/24 14:52:34;;;;;;;9.43;8.40;;;;;;;;;;5076264;28;20198;-72
2022/01/24 14:55:02;;;;;;;8.87;7.97;;;;;;;;;;5074420;28;20608;-73
2022/01/24 14:57:32;;;;;;;8.73;7.83;;;;;;;;;;5075536;28;20211;-72
2022/01/24 15:00:03;;;;;;;9.73;7.10;;;;;;;;;;5074889;28;20203;-74
2022/01/24 15:02:32;;;;;;;8.57;7.47;;;;;;;;;;5074205;27;20211;-72
2022/01/24 15:05:00;;;;;;;8.37;7.57;;;;;;;;;;5067861;28;20200;-72
2022/01/24 15:07:30;;;;;;;8.30;7.50;;;;;;;;;;5071117;28;20557;-72
2022/01/24 15:09:59;;;;;;;8.03;6.97;;;;;;;;;;5066932;28;20296;-72
2022/01/24 15:12:29;;;;;;;8.37;7.50;;;;;;;;;;5072294;28;20210;-70
2022/01/24 15:15:00;;;;;;;13.40;10.20;;;;;;;;;;5070876;28;20556;-71
2022/01/24 15:17:46;;;;;;;10.17;7.77;;;;;;;;;;5068931;28;20705;-71
2022/01/24 15:25:48;;;;;;;9.17;8.37;;;;;;;;;;5070656;28;20210;-70
2022/01/24 15:28:17;;;;;;;9.63;8.43;;;;;;;;;;5072988;28;20275;-71
2022/01/24 15:30:46;;;;;;;9.47;8.47;;;;;;;;;;5073588;28;20219;-71
2022/01/24 15:33:17;;;;;;;9.50;8.60;;;;;;;;;;5074973;28;20596;-70
2022/01/24 15:35:45;;;;;;;8.70;7.83;;;;;;;;;;5070353;28;20203;-71
2022/01/24 15:38:15;;;;;;;9.73;8.73;;;;;;;;;;5073966;28;20225;-71
2022/01/24 15:40:44;;;;;;;10.67;8.63;;;;;;;;;;5072824;28;20681;-71
2022/01/24 15:43:27;;;;;;;10.30;9.30;;;;;;;;;;5076696;28;20199;-70
2022/01/24 15:46:01;;;;;;;12.10;9.70;;;;;;;;;;5073539;28;20210;-71
2022/01/24 15:48:30;;;;;;;10.87;9.83;;;;;;;;;;5064505;28;20213;-71
2022/01/24 15:50:59;;;;;;;10.40;9.40;;;;;;;;;;5072134;28;20227;-71
2022/01/24 15:53:44;;;;;;;10.63;9.43;;;;;;;;;;5074571;28;20285;-71
2022/01/24 15:57:39;;;;;;;10.93;9.83;;;;;;;;;;5073009;28;20647;-71
2022/01/24 15:59:05;;;;;;;12.43;10.50;;;;;;;;;;5072496;28;20218;-72
2022/01/24 16:01:34;;;;;;;11.37;10.10;;;;;;;;;;5065466;28;20206;-71
2022/01/24 16:04:03;;;;;;;13.33;10.77;;;;;;;;;;5070463;28;20688;-71
2022/01/24 16:06:32;;;;;;;12.17;10.33;;;;;;;;;;5071462;28;20206;-71
2022/01/24 16:09:02;;;;;;;12.30;10.97;;;;;;;;;;5068957;28;20559;-71
2022/01/24 16:11:30;;;;;;;14.67;10.97;;;;;;;;;;5064757;27;20230;-71
2022/01/24 16:14:19;;;;;;;12.23;10.47;;;;;;;;;;5066222;28;20230;-71
2022/01/24 16:16:49;;;;;;;12.00;10.70;;;;;;;;;;5060107;28;20199;-74